»·PEaware :: NKS421 KSNA-KSFO

NKS421 :: KSNA-KSFO

FLIGHT INFORMATION

Flight Status: Arrived
Operator:
Spirit Airlines
More flights by this operator :: More flights under this callsign
Pilot: Anonymous 12254 (12254)
Aircraft: AIRBUS A320
(A320)
More flights by this aircraft type
Origin: KSNA John Wayne-Orange Co
United States
Destination: KSFO San Francisco Intl
United States
More flights between these airports :: More routes between these airports
Route: HHERO3 IKAYE RIZIN SPLNT STOKD SERFR SERFR3
File this flight plan on PilotEdge
Remarks:
Altitude:
(Current/Filed)
36,000ft
Speed:
(Current/Filed)
450kts
Departed: 21-Jun-19 01:03 PM
Arrived: 21-Jun-19 02:29 PM
Distance/Time
Traveled:
323nm/1:26
Distance/Time
To Go:
Arrived

Flight Plot

Page will automatically refresh every two minutes.

Flight plan parsing failed; only flown route is shown


Map Options




Map Legend


Flown Route
Filed Route
Departure Airport
Arrival Airport
Navaid (VOR, NDB)
Fix

Horizontal Profiles

Position Reports

Time Latitude Longitude Heading Altitude Ground
Speed
21-Jun-19 12:37 33.675356 -117.864844 118 65ft 0kts
21-Jun-19 12:38 33.675356 -117.864844 118 65ft 0kts
21-Jun-19 12:39 33.675356 -117.864844 118 65ft 0kts
21-Jun-19 12:40 33.675356 -117.864844 118 65ft 0kts
21-Jun-19 12:41 33.675356 -117.864844 118 65ft 0kts
21-Jun-19 12:42 33.675356 -117.864844 118 65ft 0kts
21-Jun-19 12:43 33.675356 -117.864844 118 65ft 0kts
21-Jun-19 12:44 33.675356 -117.864844 118 65ft 0kts
21-Jun-19 12:45 33.675356 -117.864844 118 65ft 0kts
21-Jun-19 12:46 33.675356 -117.864844 118 65ft 0kts
21-Jun-19 12:47 33.675356 -117.864844 118 65ft 0kts
21-Jun-19 12:48 33.675356 -117.864844 118 65ft 0kts
21-Jun-19 12:49 33.675356 -117.864844 118 65ft 0kts
21-Jun-19 12:50 33.675466 -117.865088 118 65ft 2kts
21-Jun-19 12:51 33.675479 -117.865582 44 65ft 0kts
21-Jun-19 12:52 33.675487 -117.865585 25 65ft 0kts
21-Jun-19 12:53 33.676911 -117.864703 28 65ft 15kts
21-Jun-19 12:54 33.679016 -117.863351 28 65ft 15kts
21-Jun-19 12:55 33.680566 -117.862980 310 65ft 5kts
21-Jun-19 12:56 33.680677 -117.863193 298 65ft 3kts
21-Jun-19 12:57 33.681115 -117.864160 298 65ft 0kts
21-Jun-19 12:58 33.681115 -117.864160 298 65ft 0kts
21-Jun-19 12:59 33.681115 -117.864160 298 65ft 0kts
21-Jun-19 13:00 33.681115 -117.864160 298 65ft 0kts
21-Jun-19 13:01 33.681251 -117.865317 210 65ft 10kts
21-Jun-19 13:02 33.642524 -117.890294 207 1167ft 245kts
21-Jun-19 13:03 33.577172 -117.916570 186 4218ft 257kts
21-Jun-19 13:04 33.512418 -117.952467 209 6836ft 270kts
21-Jun-19 13:05 33.462494 -118.017543 246 9371ft 278kts
21-Jun-19 13:06 33.427804 -118.101257 244 10013ft 280kts
21-Jun-19 13:07 33.404975 -118.188232 286 10034ft 280kts
21-Jun-19 13:08 33.433906 -118.274838 291 10930ft 282kts
21-Jun-19 13:09 33.470121 -118.359696 299 13393ft 289kts
21-Jun-19 13:10 33.508716 -118.445573 296 15788ft 296kts
21-Jun-19 13:11 33.551987 -118.530385 307 17720ft 304kts
21-Jun-19 13:12 33.601671 -118.604351 307 19953ft 312kts
21-Jun-19 13:13 33.654414 -118.683702 306 22365ft 321kts
21-Jun-19 13:14 33.717192 -118.770610 323 23019ft 382kts
21-Jun-19 13:15 33.818451 -118.823030 332 23020ft 399kts
21-Jun-19 13:16 33.919506 -118.877814 329 23019ft 395kts
21-Jun-19 13:17 34.010325 -118.944875 340 23272ft 395kts
21-Jun-19 13:18 34.110232 -118.992583 329 25966ft 379kts
21-Jun-19 13:19 34.178351 -119.078514 300 28956ft 348kts
21-Jun-19 13:20 34.228175 -119.175084 300 31638ft 331kts
21-Jun-19 13:21 34.275167 -119.266462 299 34264ft 308kts
21-Jun-19 13:22 34.318527 -119.351029 299 36024ft 302kts
21-Jun-19 13:23 34.365963 -119.443699 299 36024ft 346kts
21-Jun-19 13:24 34.421716 -119.545110 310 36024ft 385kts
21-Jun-19 13:25 34.498351 -119.639517 311 36017ft 413kts
21-Jun-19 13:26 34.579153 -119.739163 311 36020ft 415kts
21-Jun-19 13:27 34.659739 -119.838805 311 36016ft 414kts
21-Jun-19 13:28 34.740748 -119.939238 311 36012ft 414kts
21-Jun-19 13:29 34.821604 -120.039778 311 36010ft 414kts
21-Jun-19 13:30 34.902321 -120.140445 311 36017ft 414kts
21-Jun-19 13:31 34.981440 -120.239483 310 36020ft 405kts
21-Jun-19 13:32 35.059449 -120.337343 309 36019ft 399kts
21-Jun-19 13:33 35.138690 -120.429942 312 36015ft 402kts
21-Jun-19 13:34 35.220171 -120.521287 312 36011ft 402kts
21-Jun-19 13:35 35.302973 -120.614362 312 36011ft 402kts
21-Jun-19 13:36 35.385042 -120.706893 312 36009ft 402kts
21-Jun-19 13:37 35.467140 -120.799727 312 36003ft 402kts
21-Jun-19 13:38 35.555688 -120.885117 317 36000ft 406kts
21-Jun-19 13:40 35.643915 -120.967118 317 36002ft 391kts
21-Jun-19 13:41 35.730771 -121.048047 317 36003ft 392kts
21-Jun-19 13:42 35.817435 -121.129008 318 36003ft 391kts
21-Jun-19 13:43 35.904025 -121.210133 318 36004ft 390kts
21-Jun-19 13:44 35.990442 -121.291325 318 36010ft 390kts
21-Jun-19 13:45 36.076326 -121.370643 321 34672ft 380kts
21-Jun-19 13:46 36.163153 -121.438578 323 32710ft 369kts
21-Jun-19 13:47 36.251323 -121.507213 324 29720ft 380kts
21-Jun-19 13:48 36.339095 -121.576293 324 27466ft 369kts
21-Jun-19 13:49 36.424281 -121.643253 325 25234ft 357kts
21-Jun-19 13:50 36.507649 -121.708926 325 22396ft 365kts
21-Jun-19 13:51 36.595846 -121.778589 326 18655ft 383kts
21-Jun-19 13:52 36.683983 -121.848507 327 16029ft 366kts
21-Jun-19 13:53 36.768855 -121.901812 345 15068ft 313kts
21-Jun-19 13:54 36.853964 -121.925584 345 14450ft 313kts
21-Jun-19 13:55 36.939436 -121.949372 346 12045ft 316kts
21-Jun-19 13:56 37.023202 -121.980752 341 9824ft 313kts
21-Jun-19 13:57 37.105724 -122.012922 342 7632ft 311kts
21-Jun-19 13:57 37.173331 -122.039396 342 6626ft 282kts
21-Jun-19 13:59 37.254080 -122.071226 342 6782ft 257kts
21-Jun-19 14:00 37.322524 -122.098096 342 6890ft 258kts
21-Jun-19 14:00 37.379854 -122.120708 343 6042ft 252kts
21-Jun-19 14:02 37.459323 -122.147846 345 4697ft 256kts
21-Jun-19 14:02 37.516480 -122.167402 343 3786ft 243kts
21-Jun-19 14:03 37.556429 -122.226420 299 3034ft 215kts
21-Jun-19 14:04 37.581828 -122.288460 296 2191ft 200kts
21-Jun-19 14:05 37.603713 -122.340101 297 455ft 138kts
21-Jun-19 14:06 37.616529 -122.369925 298 13ft 48kts
21-Jun-19 14:28 37.618152 -122.380900 250 32ft 0kts
21-Jun-19 14:29 37.618152 -122.380900 250 32ft 0kts
21-Jun-19 14:30 37.618152 -122.380900 250 32ft 0kts
21-Jun-19 14:31 37.618152 -122.380900 250 32ft 0kts
21-Jun-19 14:32 37.618152 -122.380900 250 32ft 0kts
21-Jun-19 14:33 37.618152 -122.380900 250 32ft 0kts
21-Jun-19 14:34 37.618152 -122.380900 250 32ft 0kts
21-Jun-19 14:35 37.618152 -122.380900 250 32ft 0kts
21-Jun-19 14:36 37.618152 -122.380900 250 32ft 0kts
21-Jun-19 14:37 37.618152 -122.380900 250 32ft 0kts
21-Jun-19 14:38 37.618152 -122.380900 250 32ft 0kts
21-Jun-19 14:39 37.618152 -122.380900 250 32ft 0kts
21-Jun-19 14:40 37.618152 -122.380900 250 32ft 0kts
21-Jun-19 14:41 37.618152 -122.380900 250 32ft 0kts
21-Jun-19 14:42 37.618152 -122.380900 250 32ft 0kts

Navigation Log

Ident Type
Flight plan parsing failed, navigation log unavailable